createdAt,value
2022-09-15T00:02:03.850Z,17.88
2022-09-15T00:04:30.788Z,17.88
2022-09-15T00:06:57.655Z,18.60
2022-09-15T00:09:24.547Z,19.52
2022-09-15T00:11:51.503Z,19.75
2022-09-15T00:14:18.744Z,17.80
2022-09-15T00:16:45.611Z,18.48
2022-09-15T00:19:12.469Z,19.48
2022-09-15T00:21:40.396Z,20.55
2022-09-15T00:24:07.613Z,21.70
2022-09-15T00:26:35.136Z,21.50
2022-09-15T00:29:02.453Z,21.27
2022-09-15T00:31:30.993Z,23.50
2022-09-15T00:34:02.663Z,24.05
2022-09-15T00:36:29.810Z,24.08
2022-09-15T00:38:56.919Z,25.63
2022-09-15T00:41:24.253Z,25.55
2022-09-15T00:43:55.624Z,26.30
2022-09-15T00:46:24.282Z,27.05
2022-09-15T00:48:54.008Z,26.83
2022-09-15T00:51:23.075Z,27.23
2022-09-15T00:53:50.903Z,27.15
2022-09-15T00:56:18.783Z,27.35
2022-09-15T00:58:52.566Z,26.20
2022-09-15T01:01:19.649Z,22.70
2022-09-15T01:03:46.765Z,22.33
2022-09-15T01:06:20.680Z,24.75
2022-09-15T01:08:57.054Z,23.48
2022-09-15T01:11:24.282Z,25.17
2022-09-15T01:13:51.174Z,27.52
2022-09-15T01:16:26.334Z,26.35
2022-09-15T01:18:53.277Z,27.52
2022-09-15T01:21:22.289Z,28.00
2022-09-15T01:24:05.317Z,28.50
2022-09-15T01:26:38.205Z,24.25
2022-09-15T01:29:23.591Z,25.50
2022-09-15T01:32:21.339Z,24.75
2022-09-15T01:35:17.574Z,23.88
2022-09-15T01:37:47.621Z,22.13
2022-09-15T01:40:15.999Z,22.05
2022-09-15T01:42:44.350Z,22.70
2022-09-15T01:45:14.239Z,21.33
2022-09-15T01:47:42.045Z,21.03
2022-09-15T01:50:21.056Z,21.73
2022-09-15T01:52:50.130Z,21.55
2022-09-15T01:55:20.705Z,22.67
2022-09-15T01:57:47.747Z,22.10
2022-09-15T02:00:14.736Z,21.27
2022-09-15T02:02:45.851Z,22.88
2022-09-15T02:05:20.820Z,23.13
2022-09-15T02:07:57.199Z,21.20
2022-09-15T02:10:32.867Z,20.67
2022-09-15T02:13:05.306Z,21.45
2022-09-15T02:15:36.999Z,21.02
2022-09-15T02:18:06.026Z,22.55
2022-09-15T02:20:39.129Z,24.23
2022-09-15T02:23:26.901Z,23.67
2022-09-15T02:25:56.640Z,26.40
2022-09-15T02:28:27.157Z,25.08
2022-09-15T02:30:55.803Z,26.17
2022-09-15T02:33:24.850Z,23.38
2022-09-15T02:35:52.440Z,24.38
2022-09-15T02:38:19.365Z,23.83
2022-09-15T02:40:47.003Z,23.15
2022-09-15T02:43:16.069Z,22.75
2022-09-15T02:45:43.247Z,24.30
2022-09-15T02:48:10.187Z,23.42
2022-09-15T02:50:37.749Z,24.40
2022-09-15T02:53:05.080Z,23.65
2022-09-15T02:55:32.031Z,22.60
2022-09-15T02:57:59.100Z,22.48
2022-09-15T03:00:26.301Z,22.30
2022-09-15T03:02:54.528Z,19.73
2022-09-15T03:05:22.841Z,20.30
2022-09-15T03:07:50.298Z,20.00
2022-09-15T03:10:17.288Z,21.45
2022-09-15T03:12:45.628Z,20.65
2022-09-15T03:15:13.398Z,20.50
2022-09-15T03:17:44.084Z,19.77
2022-09-15T03:22:37.625Z,19.10
2022-09-15T03:25:07.685Z,19.90
2022-09-15T03:27:35.100Z,19.05
2022-09-15T03:30:02.283Z,18.60
2022-09-15T03:32:29.954Z,20.13
2022-09-15T03:34:58.558Z,19.98
2022-09-15T03:37:25.922Z,17.48
2022-09-15T03:39:53.373Z,19.00
2022-09-15T03:42:20.547Z,17.60
2022-09-15T03:44:47.487Z,17.38
2022-09-15T03:47:14.478Z,18.63
2022-09-15T03:49:41.476Z,17.45
2022-09-15T03:52:08.285Z,18.65
2022-09-15T03:54:35.735Z,17.40
2022-09-15T03:57:03.510Z,17.90
2022-09-15T03:59:30.524Z,17.85
2022-09-15T04:01:57.565Z,18.13
2022-09-15T04:04:24.471Z,18.50
2022-09-15T04:06:51.357Z,18.17
2022-09-15T04:09:20.322Z,18.10
2022-09-15T04:11:48.007Z,18.95
2022-09-15T04:14:15.047Z,18.63
2022-09-15T04:16:42.095Z,17.95
2022-09-15T04:19:10.935Z,19.13
2022-09-15T04:21:37.966Z,20.08
2022-09-15T04:24:06.048Z,20.98
2022-09-15T04:26:34.168Z,20.52
2022-09-15T04:29:04.619Z,22.25
2022-09-15T04:31:32.643Z,22.95
2022-09-15T04:33:59.715Z,21.77
2022-09-15T04:36:28.576Z,22.35
2022-09-15T04:38:55.882Z,21.67
2022-09-15T04:41:22.923Z,21.83
2022-09-15T04:43:50.027Z,22.15
2022-09-15T04:46:18.549Z,21.83
2022-09-15T04:48:48.970Z,23.67
2022-09-15T04:51:20.329Z,22.50
2022-09-15T04:53:47.381Z,24.15
2022-09-15T04:56:15.693Z,24.70
2022-09-15T04:58:43.879Z,22.80
2022-09-15T05:01:14.896Z,24.73
2022-09-15T05:03:42.462Z,25.10
2022-09-15T05:06:10.874Z,21.15
2022-09-15T05:08:37.788Z,22.73
2022-09-15T05:11:06.568Z,22.65
2022-09-15T05:13:33.712Z,22.08
2022-09-15T05:16:04.795Z,25.15
2022-09-15T05:18:31.904Z,23.33
2022-09-15T05:21:02.382Z,23.88
2022-09-15T05:23:29.507Z,25.10
2022-09-15T05:25:56.769Z,24.02
2022-09-15T05:28:25.030Z,24.40
2022-09-15T05:30:52.604Z,24.17
2022-09-15T05:33:20.267Z,24.35
2022-09-15T05:35:51.297Z,22.27
2022-09-15T05:38:18.326Z,21.67
2022-09-15T05:40:45.366Z,23.75
2022-09-15T05:43:12.241Z,24.45
2022-09-15T05:45:42.337Z,23.80
2022-09-15T05:48:10.077Z,20.02
2022-09-15T05:50:37.100Z,20.83
2022-09-15T05:53:04.159Z,21.63
2022-09-15T05:55:31.426Z,20.42
2022-09-15T05:57:58.652Z,18.65
2022-09-15T06:00:25.501Z,18.55
2022-09-15T06:02:52.492Z,19.42
2022-09-15T06:05:19.369Z,17.45
2022-09-15T06:07:46.301Z,16.48
2022-09-15T06:10:13.102Z,16.90
2022-09-15T06:12:39.963Z,16.63
2022-09-15T06:15:06.995Z,16.25
2022-09-15T06:17:34.230Z,15.02
2022-09-15T06:20:01.663Z,16.13
2022-09-15T06:22:29.810Z,15.95
2022-09-15T06:24:56.731Z,15.32
2022-09-15T06:27:23.674Z,16.45
2022-09-15T06:29:50.653Z,15.20
2022-09-15T06:32:17.680Z,13.73
2022-09-15T06:34:44.528Z,13.93
2022-09-15T06:37:12.011Z,14.52
2022-09-15T06:39:39.057Z,14.07
2022-09-15T06:42:06.036Z,13.50
2022-09-15T06:44:34.880Z,12.98
2022-09-15T06:47:01.985Z,12.55
2022-09-15T06:49:29.192Z,12.13
2022-09-15T06:51:56.636Z,12.40
2022-09-15T06:54:23.625Z,13.15
2022-09-15T06:56:50.459Z,13.05
2022-09-15T06:59:17.400Z,12.07
2022-09-15T07:01:44.412Z,11.85
2022-09-15T07:04:11.984Z,13.20
2022-09-15T07:06:39.728Z,12.40
2022-09-15T07:09:06.905Z,13.30
2022-09-15T07:11:34.017Z,20.48
2022-09-15T07:14:00.928Z,21.05
2022-09-15T07:16:27.973Z,22.65
2022-09-15T07:18:56.022Z,21.27
2022-09-15T07:21:23.440Z,20.98
2022-09-15T07:23:50.666Z,19.77
2022-09-15T07:26:17.496Z,20.00
2022-09-15T07:28:45.792Z,21.20
2022-09-15T07:31:15.039Z,19.55
2022-09-15T07:33:42.765Z,15.52
2022-09-15T07:36:10.204Z,16.30
2022-09-15T07:38:41.786Z,16.27
2022-09-15T07:41:10.254Z,15.18
2022-09-15T07:43:37.246Z,14.75
2022-09-15T07:46:04.713Z,14.20
2022-09-15T07:48:32.232Z,12.93
2022-09-15T07:51:00.080Z,12.68
2022-09-15T07:53:30.365Z,12.98
2022-09-15T07:55:57.501Z,11.35
2022-09-15T07:58:25.020Z,12.18
2022-09-15T08:00:52.318Z,10.82
2022-09-15T08:03:19.199Z,10.32
2022-09-15T08:05:46.384Z,11.10
2022-09-15T08:08:13.492Z,10.75
2022-09-15T08:10:41.538Z,10.10
2022-09-15T08:13:08.590Z,10.55
2022-09-15T08:15:36.650Z,11.05
2022-09-15T08:18:03.921Z,10.40
2022-09-15T08:20:31.661Z,10.32
2022-09-15T08:22:58.571Z,10.73
2022-09-15T08:25:25.499Z,11.25
2022-09-15T08:27:53.081Z,12.60
2022-09-15T08:30:21.292Z,12.05
2022-09-15T08:32:48.604Z,13.73
2022-09-15T08:35:16.327Z,12.93
2022-09-15T08:37:43.227Z,12.70
2022-09-15T08:40:16.604Z,10.35
2022-09-15T08:42:45.208Z,9.63
2022-09-15T08:45:20.677Z,8.43
2022-09-15T08:47:49.295Z,8.98
2022-09-15T08:50:23.149Z,9.15
2022-09-15T08:52:52.777Z,8.77
2022-09-15T08:55:32.957Z,8.48
2022-09-15T08:58:00.379Z,8.70
2022-09-15T09:00:27.393Z,8.65
2022-09-15T09:03:05.416Z,8.68
2022-09-15T09:05:41.728Z,8.50
2022-09-15T09:08:26.658Z,8.57
2022-09-15T09:11:12.267Z,7.30
2022-09-15T09:13:57.829Z,7.55
2022-09-15T09:16:31.121Z,7.50
2022-09-15T09:19:08.169Z,7.53
2022-09-15T09:21:37.376Z,6.40
2022-09-15T09:24:15.675Z,5.50
2022-09-15T09:26:43.456Z,5.95
2022-09-15T09:29:17.031Z,5.40
2022-09-15T09:31:46.375Z,4.10
2022-09-15T09:34:20.710Z,4.32
2022-09-15T09:37:13.875Z,4.10
2022-09-15T09:39:41.552Z,4.10
2022-09-15T09:42:14.901Z,3.53
2022-09-15T09:44:42.001Z,3.50
2022-09-15T09:47:09.562Z,3.60
2022-09-15T09:49:45.481Z,4.28
2022-09-15T09:52:12.532Z,3.50
2022-09-15T09:54:39.874Z,3.38
2022-09-15T09:57:27.128Z,2.78
2022-09-15T09:59:54.601Z,2.50
2022-09-15T10:02:28.968Z,2.38
2022-09-15T10:05:16.218Z,2.92
2022-09-15T10:07:46.387Z,2.53
2022-09-15T10:10:24.496Z,3.17
2022-09-15T10:12:55.744Z,3.55
2022-09-15T10:15:27.243Z,3.10
2022-09-15T10:17:55.612Z,3.60
2022-09-15T10:20:35.972Z,3.80
2022-09-15T10:23:07.293Z,3.83
2022-09-15T10:25:57.671Z,3.90
2022-09-15T10:28:26.084Z,24.88
2022-09-15T10:31:02.538Z,4.80
2022-09-15T10:33:35.241Z,5.18
2022-09-15T10:36:04.369Z,4.70
2022-09-15T10:38:37.269Z,6.07
2022-09-15T10:41:23.367Z,7.80
2022-09-15T10:44:00.126Z,6.30
2022-09-15T10:46:37.570Z,7.13
2022-09-15T10:49:15.191Z,7.03
2022-09-15T10:51:51.706Z,6.95
2022-09-15T10:54:24.671Z,7.43
2022-09-15T10:56:57.785Z,6.85
2022-09-15T10:59:25.201Z,5.88
2022-09-15T11:02:11.573Z,6.13
2022-09-15T11:05:06.524Z,5.35
2022-09-15T11:07:42.740Z,4.97
2022-09-15T11:10:20.896Z,5.13
2022-09-15T11:12:54.362Z,4.60
2022-09-15T11:15:27.238Z,4.63
2022-09-15T11:17:54.546Z,5.20
2022-09-15T11:20:32.797Z,5.70
2022-09-15T11:23:07.249Z,5.97
2022-09-15T11:25:37.366Z,6.57
2022-09-15T11:28:18.046Z,6.93
2022-09-15T11:30:50.219Z,7.55
2022-09-15T11:33:23.135Z,7.53
2022-09-15T11:35:59.676Z,7.32
2022-09-15T11:38:30.896Z,7.78
2022-09-15T11:41:12.958Z,7.07
2022-09-15T11:43:46.226Z,7.07
2022-09-15T11:46:21.112Z,7.07
2022-09-15T11:48:57.288Z,6.20
2022-09-15T11:51:26.848Z,6.53
2022-09-15T11:53:58.755Z,6.85
2022-09-15T11:56:39.213Z,6.68
2022-09-15T11:59:18.268Z,7.30
2022-09-15T12:01:51.207Z,6.35
2022-09-15T12:04:28.732Z,6.15
2022-09-15T12:09:33.583Z,6.43
2022-09-15T12:12:03.223Z,5.40
2022-09-15T12:14:33.545Z,5.67
2022-09-15T12:17:02.174Z,6.00
2022-09-15T12:19:33.998Z,5.80
2022-09-15T12:22:06.994Z,6.38
2022-09-15T12:24:39.767Z,5.70
2022-09-15T12:27:14.223Z,7.10
2022-09-15T12:29:47.723Z,7.05
2022-09-15T12:32:20.843Z,7.00
2022-09-15T12:35:10.136Z,7.10
2022-09-15T12:37:42.130Z,7.65
2022-09-15T12:40:34.646Z,7.60
2022-09-15T12:43:23.133Z,7.70
2022-09-15T12:45:58.467Z,8.40
2022-09-15T12:48:33.644Z,7.22
2022-09-15T12:51:09.584Z,7.75
2022-09-15T12:53:49.897Z,7.68
2022-09-15T12:56:25.251Z,7.38
2022-09-15T12:58:53.099Z,6.22
2022-09-15T13:01:23.654Z,6.30
2022-09-15T13:06:30.399Z,6.10
2022-09-15T13:09:06.594Z,6.88
2022-09-15T13:11:34.841Z,5.70
2022-09-15T13:14:02.179Z,6.18
2022-09-15T13:16:46.653Z,6.20
2022-09-15T13:19:14.117Z,6.38
2022-09-15T13:21:44.230Z,6.03
2022-09-15T13:24:49.829Z,5.97
2022-09-15T13:27:19.473Z,5.85
2022-09-15T13:29:49.368Z,6.03
2022-09-15T13:32:23.264Z,6.30
2022-09-15T13:35:06.644Z,5.20
2022-09-15T13:40:34.315Z,4.68
2022-09-15T13:43:10.242Z,4.78
2022-09-15T13:45:38.222Z,3.97
2022-09-15T13:48:14.481Z,5.10
2022-09-15T13:50:44.782Z,4.55
2022-09-15T13:53:18.231Z,4.40
2022-09-15T13:55:45.703Z,4.40
2022-09-15T14:01:06.923Z,4.40
2022-09-15T14:03:42.418Z,4.20
2022-09-15T14:06:15.030Z,4.35
2022-09-15T14:08:43.452Z,4.10
2022-09-15T14:11:13.444Z,4.28
2022-09-15T14:13:47.897Z,4.78
2022-09-15T14:16:25.490Z,5.05
2022-09-15T14:18:54.279Z,4.57
2022-09-15T14:21:22.506Z,4.90
2022-09-15T14:23:53.513Z,4.63
2022-09-15T14:26:22.786Z,4.95
2022-09-15T14:28:54.109Z,4.95
2022-09-15T14:31:28.916Z,6.57
2022-09-15T14:33:57.090Z,5.35
2022-09-15T14:36:33.571Z,6.35
2022-09-15T14:39:16.431Z,5.18
2022-09-15T14:41:43.922Z,5.40
2022-09-15T14:47:21.972Z,5.72
2022-09-15T14:49:49.335Z,5.63
2022-09-15T14:52:22.854Z,6.15
2022-09-15T14:54:50.333Z,5.78
2022-09-15T14:57:20.051Z,6.68
2022-09-15T14:59:49.897Z,6.00
2022-09-15T15:02:31.320Z,5.30
2022-09-15T15:05:06.642Z,4.55
2022-09-15T15:07:36.237Z,5.53
2022-09-15T15:10:07.759Z,5.47
2022-09-15T15:12:36.467Z,5.63
2022-09-15T15:15:05.155Z,5.15
2022-09-15T15:17:32.316Z,5.78
2022-09-15T15:20:01.933Z,5.22
2022-09-15T15:22:30.471Z,5.32
2022-09-15T15:24:57.966Z,4.97
2022-09-15T15:27:34.063Z,5.88
2022-09-15T15:30:24.171Z,5.03
2022-09-15T15:32:52.194Z,4.78
2022-09-15T15:35:20.179Z,5.53
2022-09-15T15:37:50.085Z,5.55
2022-09-15T15:40:18.703Z,5.20
2022-09-15T15:43:04.229Z,4.65
2022-09-15T15:45:33.811Z,5.32
2022-09-15T15:48:01.502Z,4.45
2022-09-15T15:50:32.597Z,5.20
2022-09-15T15:53:01.118Z,4.43
2022-09-15T15:55:35.841Z,5.20
2022-09-15T15:58:03.141Z,4.30
2022-09-15T16:01:00.725Z,5.18
2022-09-15T16:03:28.075Z,4.80
2022-09-15T16:05:58.192Z,4.55
2022-09-15T16:08:28.125Z,5.25
2022-09-15T16:10:55.702Z,5.40
2022-09-15T16:13:23.000Z,5.55
2022-09-15T16:15:50.304Z,5.75
2022-09-15T16:18:17.636Z,5.07
2022-09-15T16:20:44.925Z,5.45
2022-09-15T16:23:13.936Z,5.03
2022-09-15T16:25:41.143Z,5.53
2022-09-15T16:28:08.306Z,5.75
2022-09-15T16:30:35.417Z,5.80
2022-09-15T16:33:04.504Z,5.55
2022-09-15T16:35:46.488Z,5.85
2022-09-15T16:38:13.501Z,5.65
2022-09-15T16:40:40.404Z,5.43
2022-09-15T16:43:12.770Z,5.75
2022-09-15T16:45:41.018Z,4.95
2022-09-15T16:48:08.898Z,5.68
2022-09-15T16:50:39.905Z,5.20
2022-09-15T16:53:14.158Z,6.32
2022-09-15T16:55:48.003Z,6.47
2022-09-15T16:58:15.835Z,6.38
2022-09-15T17:00:43.654Z,6.35
2022-09-15T17:03:14.785Z,6.63
2022-09-15T17:05:48.301Z,7.38
2022-09-15T17:08:16.574Z,6.53
2022-09-15T17:10:46.109Z,7.22
2022-09-15T17:13:21.657Z,7.30
2022-09-15T17:15:51.087Z,7.65
2022-09-15T17:18:18.628Z,8.27
2022-09-15T17:20:47.203Z,7.97
2022-09-15T17:23:16.934Z,8.48
2022-09-15T17:25:49.333Z,7.83
2022-09-15T17:28:16.924Z,7.80
2022-09-15T17:30:43.864Z,7.88
2022-09-15T17:33:12.854Z,7.45
2022-09-15T17:35:40.615Z,7.75
2022-09-15T17:38:08.127Z,6.97
2022-09-15T17:40:35.634Z,8.25
2022-09-15T17:43:03.068Z,8.43
2022-09-15T17:45:34.638Z,9.35
2022-09-15T17:48:02.638Z,8.43
2022-09-15T17:50:31.175Z,7.95
2022-09-15T17:52:58.808Z,8.27
2022-09-15T17:55:28.683Z,7.13
2022-09-15T17:57:56.746Z,8.20
2022-09-15T18:00:25.184Z,8.50
2022-09-15T18:02:56.464Z,8.38
2022-09-15T18:05:31.627Z,8.52
2022-09-15T18:07:59.882Z,8.90
2022-09-15T18:10:28.298Z,8.88
2022-09-15T18:12:55.729Z,7.57
2022-09-15T18:15:27.499Z,6.38
2022-09-15T18:17:55.808Z,5.50
2022-09-15T18:20:24.372Z,6.40
2022-09-15T18:22:51.785Z,5.70
2022-09-15T18:25:29.520Z,5.88
2022-09-15T18:27:57.530Z,6.35
2022-09-15T18:30:26.479Z,6.20
2022-09-15T18:32:53.780Z,7.15
2022-09-15T18:35:21.086Z,7.75
2022-09-15T18:37:49.102Z,6.65
2022-09-15T18:40:18.700Z,6.70
2022-09-15T18:42:46.034Z,7.00
2022-09-15T18:45:14.905Z,7.43
2022-09-15T18:47:42.839Z,7.32
2022-09-15T18:50:11.432Z,8.15
2022-09-15T18:52:39.217Z,7.07
2022-09-15T18:55:07.276Z,7.28
2022-09-15T18:57:38.349Z,6.53
2022-09-15T19:00:07.712Z,6.97
2022-09-15T19:02:34.923Z,8.32
2022-09-15T19:05:01.925Z,8.40
2022-09-15T19:07:30.289Z,11.20
2022-09-15T19:09:57.981Z,9.77
2022-09-15T19:12:24.926Z,12.60
2022-09-15T19:14:54.500Z,12.80
2022-09-15T19:17:21.778Z,11.07
2022-09-15T19:19:48.887Z,11.15
2022-09-15T19:22:15.907Z,11.60
2022-09-15T19:24:42.808Z,12.93
2022-09-15T19:27:09.864Z,12.40
2022-09-15T19:29:36.993Z,11.30
2022-09-15T19:32:05.365Z,11.65
2022-09-15T19:34:32.620Z,10.80
2022-09-15T19:36:59.633Z,12.35
2022-09-15T19:39:29.592Z,11.18
2022-09-15T19:41:57.237Z,9.67
2022-09-15T19:44:24.248Z,9.40
2022-09-15T19:46:51.376Z,9.38
2022-09-15T19:49:18.337Z,9.30
2022-09-15T19:51:45.326Z,9.93
2022-09-15T19:54:12.360Z,10.15
2022-09-15T19:56:39.445Z,10.48
2022-09-15T19:59:06.448Z,10.07
2022-09-15T20:01:33.480Z,10.07
2022-09-15T20:04:02.071Z,9.23
2022-09-15T20:06:32.728Z,10.02
2022-09-15T20:08:59.911Z,9.63
2022-09-15T20:11:27.427Z,9.27
2022-09-15T20:13:54.787Z,10.23
2022-09-15T20:16:23.347Z,9.40
2022-09-15T20:18:51.368Z,9.40
2022-09-15T20:21:32.613Z,8.85
2022-09-15T20:24:06.393Z,9.10
2022-09-15T20:26:33.908Z,9.50
2022-09-15T20:29:01.975Z,9.38
2022-09-15T20:31:29.469Z,8.88
2022-09-15T20:34:11.811Z,10.23
2022-09-15T20:36:39.184Z,9.45
2022-09-15T20:39:08.923Z,9.55
2022-09-15T20:41:35.928Z,10.15
2022-09-15T20:44:03.081Z,10.70
2022-09-15T20:46:31.408Z,10.75
2022-09-15T20:48:58.418Z,11.10
2022-09-15T20:51:26.933Z,10.75
2022-09-15T20:53:54.745Z,12.23
2022-09-15T20:56:25.066Z,12.43
2022-09-15T20:58:52.998Z,13.30
2022-09-15T21:01:24.582Z,12.80
2022-09-15T21:03:51.787Z,14.63
2022-09-15T21:06:19.518Z,14.27
2022-09-15T21:08:47.672Z,15.05
2022-09-15T21:11:16.013Z,14.23
2022-09-15T21:13:43.595Z,14.82
2022-09-15T21:16:12.130Z,14.90
2022-09-15T21:18:39.918Z,14.75
2022-09-15T21:21:08.143Z,14.48
2022-09-15T21:23:36.229Z,14.88
2022-09-15T21:26:04.953Z,15.52
2022-09-15T21:28:31.823Z,15.27
2022-09-15T21:31:05.799Z,15.27
2022-09-15T21:33:32.875Z,15.00
2022-09-15T21:36:06.881Z,15.82
2022-09-15T21:38:34.635Z,15.68
2022-09-15T21:41:01.470Z,14.35
2022-09-15T21:43:32.130Z,15.93
2022-09-15T21:45:59.089Z,16.27
2022-09-15T21:48:27.375Z,15.00
2022-09-15T21:50:54.424Z,14.02
2022-09-15T21:53:21.428Z,13.90
2022-09-15T21:55:51.660Z,14.95
2022-09-15T21:58:19.369Z,13.20
2022-09-15T22:00:49.907Z,14.75
2022-09-15T22:03:17.623Z,12.73
2022-09-15T22:05:46.360Z,13.85
2022-09-15T22:08:14.072Z,13.57
2022-09-15T22:10:41.669Z,13.95
2022-09-15T22:13:09.874Z,13.23
2022-09-15T22:15:36.811Z,13.70
2022-09-15T22:18:03.808Z,12.18
2022-09-15T22:20:31.270Z,12.77
2022-09-15T22:23:01.500Z,12.55
2022-09-15T22:25:29.077Z,11.95
2022-09-15T22:27:55.918Z,12.50
2022-09-15T22:30:22.896Z,12.13
2022-09-15T22:32:49.871Z,11.48
2022-09-15T22:35:17.874Z,11.88
2022-09-15T22:37:44.935Z,12.73
2022-09-15T22:40:12.081Z,11.82
2022-09-15T22:42:39.049Z,12.20
2022-09-15T22:45:07.199Z,11.95
2022-09-15T22:47:34.384Z,13.02
2022-09-15T22:50:01.252Z,12.43
2022-09-15T22:52:29.726Z,13.23
2022-09-15T22:54:56.651Z,12.68
2022-09-15T22:57:23.492Z,13.80
2022-09-15T22:59:50.367Z,14.60
2022-09-15T23:02:17.239Z,13.63
2022-09-15T23:04:44.172Z,13.63
2022-09-15T23:07:11.143Z,14.98
2022-09-15T23:09:37.945Z,14.95
2022-09-15T23:12:05.290Z,14.45
2022-09-15T23:14:32.529Z,14.10
2022-09-15T23:16:59.417Z,14.35
2022-09-15T23:19:26.484Z,14.57
2022-09-15T23:21:53.282Z,14.10
2022-09-15T23:24:20.681Z,14.73
2022-09-15T23:26:47.566Z,15.00
2022-09-15T23:29:14.693Z,15.40
2022-09-15T23:31:41.676Z,14.95
2022-09-15T23:34:08.759Z,15.35
2022-09-15T23:36:35.713Z,14.77
2022-09-15T23:39:02.707Z,13.95
2022-09-15T23:41:29.734Z,15.57
2022-09-15T23:43:57.996Z,14.82
2022-09-15T23:46:25.068Z,15.73
2022-09-15T23:48:52.044Z,15.55
2022-09-15T23:51:18.860Z,15.23
2022-09-15T23:53:45.841Z,16.67
2022-09-15T23:56:12.731Z,16.70
2022-09-15T23:58:39.721Z,15.57
